EDV2043 KPDX-KSEA
Flight info
| Callsign | EDV2043 |
|---|---|
| Flight time | 0h 29m |
| Altitude | 18000 |
| Route | COUGA KRIEG HAWKZ8 |
| Aircraft | CRJ7/M-SDFGIRWY/S |
Departure
| Time | 2026-05-06 16:47 |
|---|---|
| Airport | Portland International Airport (KPDX) |
Arrival
| Time | 2026-05-06 17:16 |
|---|---|
| Airport | Seattle–Tacoma International Airport (KSEA) |
| Time | Latitude | Longitude | Altitude | Speed | Heading |
|---|---|---|---|---|---|
| 2026-05-06 16:08 | 45.59103 | -122.59628 | 28 ft | 0 kts | 8° |
| 2026-05-06 16:36 | 45.59092 | -122.59630 | 28 ft | 4 kts | 7° |
| 2026-05-06 16:36 | 45.59065 | -122.59634 | 28 ft | 4 kts | 1° |
| 2026-05-06 16:36 | 45.59038 | -122.59631 | 27 ft | 4 kts | 348° |
| 2026-05-06 16:36 | 45.59016 | -122.59615 | 27 ft | 4 kts | 307° |
| 2026-05-06 16:37 | 45.59014 | -122.59609 | 27 ft | 1 kts | 299° |
| 2026-05-06 16:41 | 45.59017 | -122.59618 | 27 ft | 4 kts | 299° |
| 2026-05-06 16:41 | 45.59040 | -122.59678 | 27 ft | 8 kts | 299° |
| 2026-05-06 16:41 | 45.59072 | -122.59761 | 27 ft | 11 kts | 298° |
| 2026-05-06 16:42 | 45.59113 | -122.59864 | 27 ft | 13 kts | 299° |
| 2026-05-06 16:42 | 45.59137 | -122.59980 | 26 ft | 15 kts | 264° |
| 2026-05-06 16:42 | 45.59087 | -122.60102 | 26 ft | 14 kts | 209° |
| 2026-05-06 16:42 | 45.58997 | -122.60175 | 29 ft | 16 kts | 209° |
| 2026-05-06 16:43 | 45.58909 | -122.60229 | 26 ft | 10 kts | 176° |
| 2026-05-06 16:43 | 45.58865 | -122.60154 | 27 ft | 15 kts | 118° |
| 2026-05-06 16:43 | 45.58806 | -122.59998 | 27 ft | 19 kts | 117° |
| 2026-05-06 16:43 | 45.58744 | -122.59826 | 27 ft | 20 kts | 122° |
| 2026-05-06 16:44 | 45.58670 | -122.59652 | 27 ft | 21 kts | 120° |
| 2026-05-06 16:44 | 45.58597 | -122.59467 | 27 ft | 22 kts | 118° |
| 2026-05-06 16:44 | 45.58522 | -122.59273 | 26 ft | 23 kts | 119° |
| 2026-05-06 16:44 | 45.58443 | -122.59070 | 26 ft | 24 kts | 119° |
| 2026-05-06 16:45 | 45.58362 | -122.58861 | 27 ft | 24 kts | 119° |
| 2026-05-06 16:45 | 45.58278 | -122.58648 | 27 ft | 25 kts | 118° |
| 2026-05-06 16:45 | 45.58200 | -122.58445 | 27 ft | 20 kts | 119° |
| 2026-05-06 16:45 | 45.58126 | -122.58359 | 26 ft | 13 kts | 185° |
| 2026-05-06 16:46 | 45.58081 | -122.58456 | 27 ft | 13 kts | 287° |
| 2026-05-06 16:46 | 45.58158 | -122.58660 | 29 ft | 51 kts | 299° |
| 2026-05-06 16:46 | 45.58463 | -122.59441 | 27 ft | 126 kts | 298° |
| 2026-05-06 16:46 | 45.58987 | -122.60775 | 124 ft | 173 kts | 299° |
| 2026-05-06 16:47 | 45.59601 | -122.62321 | 845 ft | 184 kts | 299° |
| 2026-05-06 16:47 | 45.60225 | -122.63878 | 1710 ft | 186 kts | 300° |
| 2026-05-06 16:47 | 45.60979 | -122.65412 | 2454 ft | 197 kts | 313° |
| 2026-05-06 16:47 | 45.62147 | -122.66559 | 2742 ft | 228 kts | 336° |
| 2026-05-06 16:48 | 45.63839 | -122.67136 | 2744 ft | 270 kts | 353° |
| 2026-05-06 16:48 | 45.65721 | -122.67356 | 3237 ft | 287 kts | 358° |
| 2026-05-06 16:48 | 45.67636 | -122.67363 | 4558 ft | 273 kts | 0° |
| 2026-05-06 16:48 | 45.69509 | -122.67300 | 5665 ft | 270 kts | 1° |
| 2026-05-06 16:49 | 45.71343 | -122.67209 | 6507 ft | 274 kts | 0° |
| 2026-05-06 16:49 | 45.73259 | -122.67161 | 7354 ft | 278 kts | 359° |
| 2026-05-06 16:49 | 45.75169 | -122.67171 | 8170 ft | 282 kts | 358° |
| 2026-05-06 16:49 | 45.77085 | -122.67211 | 8966 ft | 286 kts | 358° |
| 2026-05-06 16:50 | 45.79092 | -122.67252 | 9768 ft | 289 kts | 359° |
| 2026-05-06 16:50 | 45.81073 | -122.67285 | 10557 ft | 292 kts | 359° |
| 2026-05-06 16:50 | 45.83105 | -122.67315 | 11065 ft | 308 kts | 358° |
| 2026-05-06 16:50 | 45.85293 | -122.67348 | 11394 ft | 327 kts | 358° |
| 2026-05-06 16:51 | 45.87594 | -122.67380 | 11802 ft | 342 kts | 359° |
| 2026-05-06 16:51 | 45.89924 | -122.67413 | 12487 ft | 347 kts | 359° |
| 2026-05-06 16:51 | 45.92316 | -122.67444 | 13220 ft | 350 kts | 358° |
| 2026-05-06 16:51 | 45.94764 | -122.67478 | 13928 ft | 354 kts | 358° |
| 2026-05-06 16:52 | 45.97200 | -122.67511 | 14640 ft | 357 kts | 358° |
| 2026-05-06 16:52 | 45.99624 | -122.67546 | 15322 ft | 360 kts | 358° |
| 2026-05-06 16:52 | 46.02104 | -122.67576 | 15966 ft | 364 kts | 358° |
| 2026-05-06 16:52 | 46.04604 | -122.67609 | 16556 ft | 367 kts | 358° |
| 2026-05-06 16:53 | 46.07148 | -122.67641 | 17159 ft | 370 kts | 358° |
| 2026-05-06 16:53 | 46.09688 | -122.67706 | 17713 ft | 373 kts | 355° |
| 2026-05-06 16:53 | 46.12223 | -122.68102 | 18260 ft | 375 kts | 350° |
| 2026-05-06 16:53 | 46.14767 | -122.68679 | 18803 ft | 377 kts | 349° |
| 2026-05-06 16:54 | 46.17323 | -122.69271 | 19338 ft | 381 kts | 349° |
| 2026-05-06 16:54 | 46.19889 | -122.69836 | 19721 ft | 388 kts | 350° |
| 2026-05-06 16:54 | 46.22529 | -122.70395 | 19895 ft | 400 kts | 350° |
| 2026-05-06 16:54 | 46.25314 | -122.70948 | 19975 ft | 414 kts | 351° |
| 2026-05-06 16:55 | 46.28187 | -122.71511 | 20011 ft | 428 kts | 351° |
| 2026-05-06 16:55 | 46.31020 | -122.72070 | 20030 ft | 441 kts | 351° |
| 2026-05-06 16:55 | 46.34085 | -122.72496 | 20032 ft | 455 kts | 356° |
| 2026-05-06 16:55 | 46.37213 | -122.72556 | 20037 ft | 460 kts | 359° |
| 2026-05-06 16:56 | 46.40249 | -122.72522 | 20024 ft | 431 kts | 359° |
| 2026-05-06 16:56 | 46.43113 | -122.72537 | 20016 ft | 414 kts | 357° |
| 2026-05-06 16:56 | 46.45939 | -122.72646 | 20013 ft | 415 kts | 356° |
| 2026-05-06 16:56 | 46.48778 | -122.72766 | 20010 ft | 418 kts | 357° |
| 2026-05-06 16:57 | 46.51640 | -122.72871 | 20011 ft | 421 kts | 356° |
| 2026-05-06 16:57 | 46.54533 | -122.72974 | 20009 ft | 423 kts | 356° |
| 2026-05-06 16:57 | 46.57395 | -122.73075 | 20009 ft | 425 kts | 357° |
| 2026-05-06 16:57 | 46.60283 | -122.73182 | 20005 ft | 426 kts | 357° |
| 2026-05-06 16:58 | 46.63194 | -122.73287 | 20009 ft | 428 kts | 356° |
| 2026-05-06 16:58 | 46.66126 | -122.73394 | 19986 ft | 429 kts | 356° |
| 2026-05-06 16:58 | 46.69050 | -122.73501 | 19684 ft | 431 kts | 356° |
| 2026-05-06 16:58 | 46.71958 | -122.73601 | 19591 ft | 419 kts | 357° |
| 2026-05-06 16:59 | 46.74755 | -122.73700 | 19325 ft | 405 kts | 357° |
| 2026-05-06 16:59 | 46.77457 | -122.73319 | 19027 ft | 398 kts | 15° |
| 2026-05-06 16:59 | 46.79926 | -122.71742 | 18655 ft | 390 kts | 26° |
| 2026-05-06 16:59 | 46.82193 | -122.69767 | 18102 ft | 387 kts | 33° |
| 2026-05-06 17:00 | 46.84300 | -122.67376 | 17541 ft | 384 kts | 37° |
| 2026-05-06 17:00 | 46.86270 | -122.64946 | 17001 ft | 381 kts | 39° |
| 2026-05-06 17:00 | 46.88277 | -122.62447 | 16446 ft | 378 kts | 38° |
| 2026-05-06 17:00 | 46.90267 | -122.60088 | 15876 ft | 375 kts | 37° |
| 2026-05-06 17:01 | 46.92238 | -122.57856 | 15474 ft | 359 kts | 36° |
| 2026-05-06 17:01 | 46.94266 | -122.55907 | 15078 ft | 341 kts | 22° |
| 2026-05-06 17:01 | 46.96422 | -122.54768 | 14708 ft | 327 kts | 14° |
| 2026-05-06 17:01 | 46.98519 | -122.53918 | 14343 ft | 317 kts | 13° |
| 2026-05-06 17:02 | 47.00630 | -122.53107 | 13930 ft | 312 kts | 13° |
| 2026-05-06 17:02 | 47.02696 | -122.52305 | 13663 ft | 309 kts | 13° |
| 2026-05-06 17:02 | 47.04717 | -122.51473 | 13361 ft | 308 kts | 14° |
| 2026-05-06 17:02 | 47.06750 | -122.50589 | 13050 ft | 307 kts | 15° |
| 2026-05-06 17:03 | 47.08800 | -122.49772 | 12734 ft | 304 kts | 9° |
| 2026-05-06 17:03 | 47.10145 | -122.49435 | 12511 ft | 302 kts | 6° |
| 2026-05-06 17:03 | 47.12230 | -122.49080 | 12061 ft | 300 kts | 4° |
| 2026-05-06 17:03 | 47.14958 | -122.48677 | 11493 ft | 298 kts | 4° |
| 2026-05-06 17:04 | 47.16999 | -122.48376 | 11080 ft | 297 kts | 4° |
| 2026-05-06 17:04 | 47.19030 | -122.48058 | 10769 ft | 295 kts | 5° |
| 2026-05-06 17:04 | 47.20381 | -122.47841 | 10552 ft | 294 kts | 5° |
| 2026-05-06 17:04 | 47.22388 | -122.47509 | 10234 ft | 293 kts | 5° |
| 2026-05-06 17:05 | 47.24415 | -122.47182 | 9891 ft | 292 kts | 5° |
| 2026-05-06 17:05 | 47.26414 | -122.46870 | 9566 ft | 291 kts | 5° |
| 2026-05-06 17:05 | 47.29058 | -122.46471 | 9122 ft | 289 kts | 5° |
| 2026-05-06 17:05 | 47.30409 | -122.46269 | 8890 ft | 288 kts | 5° |
| 2026-05-06 17:06 | 47.32385 | -122.45973 | 8551 ft | 287 kts | 5° |
| 2026-05-06 17:06 | 47.34323 | -122.45677 | 8199 ft | 285 kts | 5° |
| 2026-05-06 17:06 | 47.36300 | -122.45439 | 7816 ft | 284 kts | 1° |
| 2026-05-06 17:06 | 47.38237 | -122.45394 | 7462 ft | 281 kts | 359° |
| 2026-05-06 17:07 | 47.40158 | -122.45428 | 7081 ft | 279 kts | 358° |
| 2026-05-06 17:07 | 47.42100 | -122.45473 | 6663 ft | 278 kts | 358° |
| 2026-05-06 17:07 | 47.44003 | -122.45518 | 6365 ft | 273 kts | 359° |
| 2026-05-06 17:07 | 47.45822 | -122.45554 | 6314 ft | 262 kts | 358° |
| 2026-05-06 17:08 | 47.47621 | -122.45570 | 6256 ft | 253 kts | 359° |
| 2026-05-06 17:08 | 47.49335 | -122.45574 | 6190 ft | 242 kts | 359° |
| 2026-05-06 17:08 | 47.50984 | -122.45569 | 6120 ft | 231 kts | 0° |
| 2026-05-06 17:08 | 47.52491 | -122.45244 | 6053 ft | 222 kts | 10° |
| 2026-05-06 17:09 | 47.54041 | -122.45002 | 6037 ft | 230 kts | 2° |
| 2026-05-06 17:09 | 47.55669 | -122.44911 | 6050 ft | 240 kts | 1° |
| 2026-05-06 17:09 | 47.57339 | -122.44853 | 5995 ft | 235 kts | 0° |
| 2026-05-06 17:09 | 47.58912 | -122.44805 | 5773 ft | 229 kts | 0° |
| 2026-05-06 17:10 | 47.60492 | -122.44764 | 5420 ft | 228 kts | 0° |
| 2026-05-06 17:10 | 47.62071 | -122.44713 | 5083 ft | 227 kts | 4° |
| 2026-05-06 17:10 | 47.63489 | -122.43865 | 4675 ft | 228 kts | 43° |
| 2026-05-06 17:10 | 47.64224 | -122.41832 | 4294 ft | 227 kts | 82° |
| 2026-05-06 17:11 | 47.64289 | -122.39528 | 3944 ft | 225 kts | 90° |
| 2026-05-06 17:11 | 47.64224 | -122.37224 | 3618 ft | 221 kts | 103° |
| 2026-05-06 17:11 | 47.63461 | -122.35408 | 3471 ft | 207 kts | 146° |
| 2026-05-06 17:11 | 47.62315 | -122.34380 | 3411 ft | 188 kts | 146° |
| 2026-05-06 17:12 | 47.61350 | -122.33123 | 3363 ft | 180 kts | 133° |
| 2026-05-06 17:12 | 47.60451 | -122.31835 | 3336 ft | 187 kts | 154° |
| 2026-05-06 17:12 | 47.59190 | -122.31499 | 3353 ft | 188 kts | 179° |
| 2026-05-06 17:12 | 47.57870 | -122.31499 | 3329 ft | 192 kts | 182° |
| 2026-05-06 17:13 | 47.56479 | -122.31558 | 2969 ft | 205 kts | 182° |
| 2026-05-06 17:13 | 47.55067 | -122.31629 | 2540 ft | 200 kts | 182° |
| 2026-05-06 17:13 | 47.53721 | -122.31677 | 2156 ft | 183 kts | 182° |
| 2026-05-06 17:13 | 47.52590 | -122.31707 | 1965 ft | 147 kts | 181° |
| 2026-05-06 17:14 | 47.51647 | -122.31733 | 1659 ft | 127 kts | 182° |
| 2026-05-06 17:14 | 47.50773 | -122.31743 | 1381 ft | 126 kts | 180° |
| 2026-05-06 17:14 | 47.49882 | -122.31742 | 1171 ft | 129 kts | 180° |
| 2026-05-06 17:14 | 47.48973 | -122.31754 | 1009 ft | 130 kts | 181° |
| 2026-05-06 17:15 | 47.48098 | -122.31776 | 798 ft | 129 kts | 181° |
| 2026-05-06 17:15 | 47.47188 | -122.31777 | 647 ft | 126 kts | 181° |
| 2026-05-06 17:15 | 47.46312 | -122.31787 | 466 ft | 129 kts | 180° |
| 2026-05-06 17:15 | 47.45464 | -122.31792 | 401 ft | 108 kts | 181° |
| 2026-05-06 17:16 | 47.44872 | -122.31800 | 389 ft | 64 kts | 180° |
| 2026-05-06 17:16 | 47.44547 | -122.31802 | 379 ft | 41 kts | 179° |
| 2026-05-06 17:16 | 47.44335 | -122.31757 | 369 ft | 27 kts | 164° |
| 2026-05-06 17:16 | 47.44162 | -122.31629 | 365 ft | 29 kts | 151° |
| 2026-05-06 17:17 | 47.44006 | -122.31500 | 365 ft | 20 kts | 150° |
| 2026-05-06 17:17 | 47.43897 | -122.31411 | 366 ft | 18 kts | 151° |
| 2026-05-06 17:17 | 47.43819 | -122.31318 | 368 ft | 11 kts | 114° |
| 2026-05-06 17:17 | 47.43809 | -122.31204 | 369 ft | 12 kts | 91° |
| 2026-05-06 17:18 | 47.43806 | -122.31073 | 369 ft | 13 kts | 91° |
| 2026-05-06 17:18 | 47.43807 | -122.30934 | 372 ft | 13 kts | 89° |
| 2026-05-06 17:18 | 47.43807 | -122.30803 | 375 ft | 13 kts | 91° |
| 2026-05-06 17:18 | 47.43807 | -122.30670 | 375 ft | 7 kts | 82° |
| 2026-05-06 17:19 | 47.43828 | -122.30638 | 377 ft | 3 kts | 9° |
| 2026-05-06 17:19 | 47.43850 | -122.30637 | 377 ft | 6 kts | 360° |
| 2026-05-06 17:19 | 47.43909 | -122.30639 | 379 ft | 9 kts | 359° |
| 2026-05-06 17:19 | 47.43971 | -122.30632 | 381 ft | 9 kts | 21° |
| 2026-05-06 17:20 | 47.43995 | -122.30566 | 382 ft | 7 kts | 71° |
| 2026-05-06 17:20 | 47.44045 | -122.30543 | 383 ft | 10 kts | 359° |
| 2026-05-06 17:20 | 47.44111 | -122.30541 | 385 ft | 10 kts | 2° |
| 2026-05-06 17:20 | 47.44160 | -122.30525 | 387 ft | 5 kts | 59° |
| 2026-05-06 17:21 | 47.44163 | -122.30474 | 387 ft | 4 kts | 89° |
| 2026-05-06 17:21 | 47.44163 | -122.30461 | 387 ft | 0 kts | 90° |